Time;durP1;ratioP1;P1;durP2;ratioP2;P2;SDS_P1;SDS_P2;PMS_P1;PMS_P2;Temp;Humidity;BMP_temperature;BMP_pressure;BME280_temperature;BME280_humidity;BME280_pressure;Samples;Min_cycle;Max_cycle;Signal;HPM_P1;HPM_P2
2022/11/12 00:00:53;;;;;;;3.93;1.63;;;;;;;13.77;69.74;100380.50;6183453;23;20155;-87
2022/11/12 00:03:20;;;;;;;3.37;1.40;;;;;;;13.79;69.85;100376.00;6159919;23;20160;-87
2022/11/12 00:05:48;;;;;;;5.20;1.67;;;;;;;13.74;70.00;100380.66;6184219;23;20155;-87
2022/11/12 00:08:18;;;;;;;3.27;1.53;;;;;;;13.76;69.58;100386.69;6185396;23;20164;-87
2022/11/12 00:10:45;;;;;;;6.53;2.03;;;;;;;13.79;69.66;100383.06;6185562;23;20165;-87
2022/11/12 00:13:16;;;;;;;2.87;1.70;;;;;;;13.82;69.98;100383.78;6187092;23;20183;-87
2022/11/12 00:15:45;;;;;;;3.93;1.50;;;;;;;13.86;69.63;100377.44;6186043;23;20147;-87
2022/11/12 00:18:11;;;;;;;3.27;1.33;;;;;;;13.88;69.97;100375.59;6185917;23;20150;-86
2022/11/12 00:20:36;;;;;;;6.00;2.63;;;;;;;13.83;70.30;100374.09;6160726;23;20158;-87
2022/11/12 00:23:03;;;;;;;2.50;1.57;;;;;;;13.77;70.14;100372.59;6186109;23;20145;-86
2022/11/12 00:25:30;;;;;;;4.83;1.93;;;;;;;13.74;70.47;100367.47;6160823;23;20162;-87
2022/11/12 00:28:04;;;;;;;4.63;2.33;;;;;;;13.66;70.61;100374.00;6185687;23;20236;-87
2022/11/12 00:30:31;;;;;;;4.93;2.20;;;;;;;13.66;70.78;100371.38;6160533;23;20169;-87
2022/11/12 00:33:04;;;;;;;4.70;1.73;;;;;;;13.65;71.34;100372.31;6186590;23;20186;-87
2022/11/12 00:35:33;;;;;;;5.23;2.17;;;;;;;13.61;71.40;100371.59;6186528;23;20216;-87
2022/11/12 00:38:00;;;;;;;4.33;2.07;;;;;;;13.67;71.12;100368.69;6160961;23;20153;-87
2022/11/12 00:40:27;;;;;;;6.30;3.17;;;;;;;13.70;71.20;100365.06;6186679;23;20153;-87
2022/11/12 00:42:57;;;;;;;4.00;2.00;;;;;;;13.72;71.43;100369.31;6160504;23;20156;-87
2022/11/12 00:45:24;;;;;;;5.77;2.17;;;;;;;13.74;71.03;100363.97;6186719;23;20159;-87
2022/11/12 00:47:55;;;;;;;3.90;1.97;;;;;;;13.75;71.07;100365.69;6184151;23;20162;-87
2022/11/12 00:50:26;;;;;;;6.63;2.50;;;;;;;13.76;71.20;100370.88;6186784;23;20442;-87
2022/11/12 00:52:53;;;;;;;5.27;2.30;;;;;;;13.77;70.84;100366.47;6186692;23;20143;-87
2022/11/12 00:55:19;;;;;;;4.53;2.23;;;;;;;13.74;71.13;100362.19;6160480;23;20292;-87
2022/11/12 00:57:45;;;;;;;5.33;2.40;;;;;;;13.70;71.33;100360.66;6160601;23;20153;-87
2022/11/12 01:00:16;;;;;;;6.30;2.60;;;;;;;13.67;71.60;100355.50;6186740;23;20154;-87
2022/11/12 01:02:43;;;;;;;4.50;2.23;;;;;;;13.65;71.36;100349.47;6186725;23;20144;-87
2022/11/12 01:05:10;;;;;;;10.03;1.90;;;;;;;13.64;71.34;100338.97;6161095;23;20164;-87
2022/11/12 01:07:37;;;;;;;6.30;2.83;;;;;;;13.65;71.04;100346.81;6160324;23;20196;-87
2022/11/12 01:10:04;;;;;;;4.57;1.83;;;;;;;13.67;71.44;100339.69;6159759;23;20594;-87
2022/11/12 01:12:31;;;;;;;5.80;2.77;;;;;;;13.72;71.12;100342.97;6185991;23;20456;-87
2022/11/12 01:14:58;;;;;;;4.83;2.47;;;;;;;13.66;70.93;100340.59;6186318;23;20180;-87
2022/11/12 01:17:25;;;;;;;5.53;2.33;;;;;;;13.71;70.98;100349.16;6160100;23;20151;-87
2022/11/12 01:19:51;;;;;;;4.23;2.53;;;;;;;13.66;71.75;100335.34;6159813;23;20160;-87
2022/11/12 01:22:18;;;;;;;7.17;2.30;;;;;;;13.70;71.53;100334.28;6160056;23;20242;-87
2022/11/12 01:24:45;;;;;;;5.93;2.67;;;;;;;13.72;71.13;100327.16;6185722;23;20564;-87
2022/11/12 01:27:11;;;;;;;6.27;2.47;;;;;;;13.76;71.24;100333.97;6186278;23;20151;-87
2022/11/12 01:29:39;;;;;;;9.60;2.17;;;;;;;13.76;70.76;100336.63;6186081;23;20148;-87
2022/11/12 01:32:06;;;;;;;4.67;2.20;;;;;;;13.79;70.77;100335.63;6185889;23;20152;-87
2022/11/12 01:34:36;;;;;;;7.27;2.73;;;;;;;13.84;71.21;100336.25;6160459;23;20630;-87
2022/11/12 01:37:02;;;;;;;5.27;2.40;;;;;;;13.82;71.17;100338.97;6140052;23;20205;-87
2022/11/12 01:39:29;;;;;;;4.33;2.57;;;;;;;13.85;71.00;100344.13;6156156;23;20157;-86
2022/11/12 01:41:56;;;;;;;4.77;2.40;;;;;;;13.86;70.55;100339.69;6156101;23;20476;-87
2022/11/12 01:44:30;;;;;;;5.17;2.73;;;;;;;13.85;70.81;100343.25;6130438;23;20240;-87
2022/11/12 01:47:24;;;;;;;4.23;2.07;;;;;;;13.86;70.50;100339.69;6156111;23;20149;-87
2022/11/12 01:50:04;;;;;;;6.13;2.17;;;;;;;13.86;70.50;100337.91;6130148;23;20195;-87
2022/11/12 01:52:48;;;;;;;7.37;2.67;;;;;;;13.89;70.56;100340.41;6156119;23;20142;-87
2022/11/12 01:55:21;;;;;;;6.77;2.90;;;;;;;13.86;70.50;100350.25;6130382;23;20172;-87
2022/11/12 01:57:53;;;;;;;5.80;2.87;;;;;;;13.88;70.42;100343.13;6130048;23;20157;-87
2022/11/12 02:00:19;;;;;;;6.87;2.40;;;;;;;13.92;70.05;100342.88;6156360;23;20157;-87
2022/11/12 02:02:53;;;;;;;5.47;2.13;;;;;;;13.94;69.88;100350.75;6155928;23;20249;-87
2022/11/12 02:05:22;;;;;;;6.30;2.57;;;;;;;13.95;69.62;100355.06;6156293;23;20136;-87
2022/11/12 02:07:50;;;;;;;4.70;2.47;;;;;;;13.97;69.91;100351.44;6130165;23;20172;-87
2022/11/12 02:10:17;;;;;;;6.10;2.70;;;;;;;13.93;70.13;100354.28;6156110;23;20237;-87
2022/11/12 02:15:30;;;;;;;6.53;3.33;;;;;;;13.93;70.07;100357.78;6156110;23;20169;-87
2022/11/12 02:17:56;;;;;;;7.33;3.20;;;;;;;13.92;70.08;100360.47;6130013;23;20169;-87
2022/11/12 02:20:23;;;;;;;9.33;3.20;;;;;;;13.91;70.03;100361.44;6156109;23;20558;-87
2022/11/12 02:22:50;;;;;;;5.10;2.80;;;;;;;13.90;70.06;100357.94;6130640;23;20166;-87
2022/11/12 02:25:22;;;;;;;5.03;2.63;;;;;;;13.91;70.07;100369.34;6130503;23;20165;-87
2022/11/12 02:27:53;;;;;;;6.40;2.83;;;;;;;13.91;70.09;100361.44;6155823;23;20154;-86
2022/11/12 02:30:45;;;;;;;6.80;3.37;;;;;;;13.90;69.89;100365.84;6129732;23;20158;-86
2022/11/12 02:33:11;;;;;;;7.13;3.80;;;;;;;13.89;70.17;100358.84;6155663;23;20169;-86
2022/11/12 02:35:37;;;;;;;6.70;3.33;;;;;;;13.94;70.08;100359.47;6157734;23;20154;-86
2022/11/12 02:38:05;;;;;;;6.60;3.40;;;;;;;13.92;69.79;100360.47;6185298;23;20274;-86
2022/11/12 02:40:32;;;;;;;10.10;3.20;;;;;;;13.91;70.18;100359.66;6185605;23;20175;-86
2022/11/12 02:42:59;;;;;;;6.97;2.60;;;;;;;13.93;70.24;100357.78;6185632;23;20169;-85
2022/11/12 02:45:30;;;;;;;8.43;3.43;;;;;;;13.93;70.23;100363.06;6185646;23;20149;-85
2022/11/12 03:30:05;;;;;;;5.77;3.27;;;;;;;13.68;71.01;100380.91;6172991;23;20209;-87
2022/11/12 03:32:34;;;;;;;8.10;4.20;;;;;;;13.68;71.35;100378.28;6185234;23;20162;-89
2022/11/12 03:35:06;;;;;;;5.83;3.27;;;;;;;13.71;71.35;100378.16;6185198;23;20185;-90
2022/11/12 03:37:31;;;;;;;7.83;3.73;;;;;;;13.73;71.47;100386.81;6185236;23;20149;-89
2022/11/12 03:39:56;;;;;;;7.43;3.53;;;;;;;13.72;71.39;100384.28;6185370;23;20153;-89
2022/11/12 03:42:22;;;;;;;8.30;3.53;;;;;;;13.72;70.94;100381.63;6185158;23;20496;-89
2022/11/12 03:44:50;;;;;;;7.23;3.63;;;;;;;13.67;71.05;100384.50;6187519;23;20511;-89
2022/11/12 03:47:16;;;;;;;8.80;3.43;;;;;;;13.61;71.35;100390.03;6161086;23;20167;-89
2022/11/12 03:49:41;;;;;;;11.37;4.23;;;;;;;13.61;71.64;100390.03;6187160;23;20244;-89
2022/11/12 03:52:07;;;;;;;7.17;3.83;;;;;;;13.62;71.77;100394.38;6187024;23;20223;-89
2022/11/12 03:54:35;;;;;;;6.27;3.57;;;;;;;13.62;71.44;100389.13;6160973;23;20507;-90
2022/11/12 03:57:04;;;;;;;6.77;3.47;;;;;;;13.65;71.64;100394.25;6160839;23;20187;-89
2022/11/12 03:59:29;;;;;;;7.63;4.13;;;;;;;13.60;71.59;100396.22;6187719;23;20182;-89
2022/11/12 04:01:57;;;;;;;7.77;3.47;;;;;;;13.61;71.89;100397.06;6187368;23;20155;-89
2022/11/12 04:08:34;;;;;;;7.57;3.97;;;;;;;13.59;71.84;100389.25;6160536;23;20452;-89
2022/11/12 04:09:52;;;;;;;10.07;3.93;;;;;;;13.62;71.92;100393.53;6187695;23;20156;-89
2022/11/12 04:15:01;;;;;;;7.63;3.97;;;;;;;13.69;71.93;100397.59;6186929;23;20320;-90
2022/11/12 04:23:00;;;;;;;9.43;4.17;;;;;;;13.60;71.47;100388.31;6187217;23;20148;-89
2022/11/12 04:28:12;;;;;;;6.10;3.50;;;;;;;13.50;71.29;100390.50;6187185;23;20263;-89
2022/11/12 04:30:41;;;;;;;8.37;3.70;;;;;;;13.45;71.94;100387.22;6186494;23;20301;-89
2022/11/12 04:33:09;;;;;;;8.30;4.30;;;;;;;13.47;72.16;100389.78;6185900;23;20193;-89
2022/11/12 04:35:35;;;;;;;5.93;3.13;;;;;;;13.37;72.19;100393.75;6184878;23;20155;-89
2022/11/12 04:38:00;;;;;;;6.80;3.67;;;;;;;13.35;72.11;100387.69;6186802;23;20538;-89
2022/11/12 04:46:11;;;;;;;7.67;3.57;;;;;;;13.17;72.37;100392.00;6187092;23;20148;-89
2022/11/12 04:48:36;;;;;;;6.80;3.17;;;;;;;13.12;72.80;100386.06;6186616;23;20546;-89
2022/11/12 04:52:03;;;;;;;4.53;2.93;;;;;;;13.08;72.84;100394.16;6186636;23;20164;-89
2022/11/12 04:53:49;;;;;;;5.77;2.90;;;;;;;12.88;72.99;100387.94;6184976;23;20261;-89
2022/11/12 04:56:15;;;;;;;5.77;2.93;;;;;;;12.87;73.28;100396.75;6187197;23;20151;-89
2022/11/12 04:58:40;;;;;;;7.07;3.67;;;;;;;12.84;73.48;100394.22;6186596;23;20200;-88
2022/11/12 05:01:06;;;;;;;8.27;3.20;;;;;;;12.81;73.45;100393.53;6186891;23;20670;-88
2022/11/12 05:03:31;;;;;;;6.40;2.53;;;;;;;12.63;73.87;100399.53;6186471;23;20151;-89
2022/11/12 05:06:50;;;;;;;4.97;2.17;;;;;;;12.51;74.25;100400.88;6186752;23;20458;-89
2022/11/12 05:08:53;;;;;;;4.97;2.30;;;;;;;12.50;74.76;100399.16;6186108;23;20193;-89
2022/11/12 05:11:24;;;;;;;6.10;2.30;;;;;;;12.53;74.08;100403.44;6160345;23;20473;-89
2022/11/12 05:13:50;;;;;;;4.63;1.93;;;;;;;12.51;74.23;100403.50;6185240;23;20189;-89
2022/11/12 05:16:15;;;;;;;6.63;2.23;;;;;;;12.53;74.00;100408.69;6160353;23;20229;-89
2022/11/12 05:18:41;;;;;;;5.37;2.30;;;;;;;12.30;74.56;100407.84;6186708;23;20309;-89
2022/11/12 05:22:04;;;;;;;5.20;2.20;;;;;;;12.28;74.82;100399.19;6186402;23;20154;-89
2022/11/12 05:23:51;;;;;;;5.80;2.83;;;;;;;12.33;74.51;100397.22;6186143;23;20161;-88
2022/11/12 05:26:17;;;;;;;6.27;2.93;;;;;;;12.40;74.63;100405.72;6186204;23;20590;-89
2022/11/12 05:28:42;;;;;;;7.87;2.03;;;;;;;12.43;74.17;100407.38;6186158;23;20578;-89
2022/11/12 05:31:08;;;;;;;4.50;1.67;;;;;;;12.29;74.53;100411.41;6186083;23;20704;-89
2022/11/12 05:33:33;;;;;;;3.33;1.77;;;;;;;12.28;74.44;100400.94;6160044;23;20698;-89
2022/11/12 05:36:03;;;;;;;6.07;1.70;;;;;;;12.22;74.85;100409.06;6160413;23;20179;-88
2022/11/12 05:38:28;;;;;;;3.53;1.40;;;;;;;12.24;74.24;100402.84;6186167;23;20162;-89
2022/11/12 05:40:54;;;;;;;5.53;2.53;;;;;;;12.22;74.71;100412.56;6186100;23;20153;-89
2022/11/12 05:43:19;;;;;;;3.50;1.80;;;;;;;12.18;74.50;100412.75;6160129;23;20532;-89
2022/11/12 05:45:47;;;;;;;5.67;1.50;;;;;;;12.00;75.59;100418.72;6160118;23;20598;-89
2022/11/12 05:48:15;;;;;;;7.37;2.37;;;;;;;12.09;75.38;100413.09;6186065;23;20465;-88
2022/11/12 05:50:43;;;;;;;2.07;1.43;;;;;;;12.04;75.91;100415.03;6184861;23;20453;-89
2022/11/12 05:53:12;;;;;;;5.00;2.00;;;;;;;11.87;76.24;100412.19;6185936;23;20178;-88
2022/11/12 05:55:37;;;;;;;7.13;2.50;;;;;;;11.86;75.98;100421.00;6186284;23;20204;-91
2022/11/12 05:58:06;;;;;;;4.93;2.30;;;;;;;11.93;76.21;100422.47;6186265;23;20229;-89
2022/11/12 06:00:37;;;;;;;4.17;1.97;;;;;;;12.05;76.02;100422.00;6186277;23;20157;-89
2022/11/12 06:03:07;;;;;;;6.67;2.70;;;;;;;12.11;75.59;100427.03;6186341;23;20531;-88
2022/11/12 06:05:32;;;;;;;4.50;1.93;;;;;;;12.02;75.58;100416.88;6186093;23;20194;-89
2022/11/12 06:08:05;;;;;;;6.60;1.80;;;;;;;11.89;76.93;100411.22;6159748;23;20610;-89
2022/11/12 06:10:33;;;;;;;6.03;2.47;;;;;;;11.88;77.39;100413.91;6186133;23;20586;-89
2022/11/12 06:13:01;;;;;;;4.23;2.03;;;;;;;11.99;77.20;100422.25;6185638;23;20157;-89
2022/11/12 06:15:26;;;;;;;5.07;2.23;;;;;;;12.07;77.02;100421.03;6159800;23;20571;-89
2022/11/12 06:18:00;;;;;;;3.60;1.83;;;;;;;12.09;77.24;100424.47;6185802;23;20165;-90
2022/11/12 06:20:26;;;;;;;4.33;1.93;;;;;;;12.08;77.22;100421.91;6159848;23;20530;-89
2022/11/12 06:22:52;;;;;;;4.10;2.20;;;;;;;12.18;77.10;100416.25;6159010;23;20162;-89
2022/11/12 06:25:20;;;;;;;5.47;2.37;;;;;;;12.18;76.19;100420.63;6159836;23;20189;-89
2022/11/12 06:27:48;;;;;;;3.73;2.07;;;;;;;12.23;76.40;100421.31;6185711;23;20146;-88
2022/11/12 06:30:17;;;;;;;4.30;2.50;;;;;;;12.22;76.81;100430.09;6154615;23;20202;-89
2022/11/12 06:32:47;;;;;;;4.03;2.30;;;;;;;12.38;75.99;100431.22;6130226;23;20159;-89
2022/11/12 06:35:13;;;;;;;2.57;1.53;;;;;;;12.38;76.03;100436.47;6155966;23;20171;-89
2022/11/12 06:37:41;;;;;;;4.30;2.10;;;;;;;12.34;76.84;100440.16;6130221;23;20160;-89
2022/11/12 06:40:07;;;;;;;4.47;1.87;;;;;;;12.33;75.98;100444.56;6130175;23;20158;-90
2022/11/12 06:42:33;;;;;;;6.00;2.80;;;;;;;12.28;76.81;100445.66;6155797;23;20586;-89
2022/11/12 06:45:02;;;;;;;6.60;3.33;;;;;;;12.34;76.78;100443.63;6130077;23;20147;-89
2022/11/12 06:47:31;;;;;;;6.93;3.27;;;;;;;12.38;76.91;100462.78;6155835;23;20178;-89
2022/11/12 06:49:56;;;;;;;6.23;2.93;;;;;;;12.54;76.65;100468.28;6155376;23;20151;-89
2022/11/12 06:52:22;;;;;;;5.03;3.03;;;;;;;12.60;76.08;100476.81;6156813;23;20153;-90
2022/11/12 06:54:48;;;;;;;11.47;5.50;;;;;;;12.59;76.31;100480.34;6155703;23;20287;-89
2022/11/12 06:57:13;;;;;;;8.77;4.63;;;;;;;12.51;77.23;100474.53;6130234;23;20248;-89
2022/11/12 06:59:38;;;;;;;20.30;7.67;;;;;;;12.52;77.06;100476.25;6130043;23;20156;-89
2022/11/12 07:02:04;;;;;;;7.57;3.87;;;;;;;12.59;76.71;100482.97;6130189;23;20157;-90
2022/11/12 07:04:32;;;;;;;5.97;3.40;;;;;;;12.69;76.84;100489.59;6155686;23;20587;-90
2022/11/12 07:07:04;;;;;;;5.60;2.73;;;;;;;12.73;77.19;100491.19;6129934;23;20161;-90
2022/11/12 07:09:32;;;;;;;5.87;3.43;;;;;;;12.72;77.09;100494.72;6155957;23;20154;-90
2022/11/12 07:12:00;;;;;;;6.20;3.40;;;;;;;12.86;76.52;100499.44;6155661;23;20150;-91
2022/11/12 07:14:26;;;;;;;6.13;2.70;;;;;;;12.96;76.42;100492.88;6156006;23;20174;-91
2022/11/12 07:16:51;;;;;;;7.73;3.17;;;;;;;13.06;76.37;100494.22;6130935;23;20168;-91
2022/11/12 07:19:16;;;;;;;7.03;3.33;;;;;;;13.11;76.28;100494.06;6156908;23;20242;-91
2022/11/12 07:21:45;;;;;;;5.97;2.73;;;;;;;13.27;75.54;100493.38;6131693;23;20317;-90
2022/11/12 07:24:13;;;;;;;7.53;4.00;;;;;;;13.30;74.77;100482.72;6132189;23;20653;-91
2022/11/12 07:26:39;;;;;;;9.10;4.83;;;;;;;13.20;74.62;100483.16;6131179;23;20167;-91
2022/11/12 07:29:06;;;;;;;7.93;4.63;;;;;;;13.13;75.56;100486.97;6132180;23;20161;-90
2022/11/12 07:31:31;;;;;;;10.43;4.17;;;;;;;13.14;75.70;100499.19;6161100;23;20580;-91
2022/11/12 07:33:57;;;;;;;10.97;4.03;;;;;;;13.16;75.86;100505.25;6187639;23;20235;-91
2022/11/12 07:36:25;;;;;;;7.47;3.80;;;;;;;13.21;75.85;100503.28;6187585;23;20164;-91
2022/11/12 07:38:54;;;;;;;10.83;4.77;;;;;;;13.25;75.48;100494.34;6187266;23;20152;-91
2022/11/12 07:41:21;;;;;;;12.73;4.13;;;;;;;13.23;75.14;100483.88;6187263;23;20148;-91
2022/11/12 07:43:53;;;;;;;6.27;3.30;;;;;;;12.98;75.65;100498.94;6186463;23;20214;-90
2022/11/12 07:46:25;;;;;;;8.50;3.80;;;;;;;13.05;74.86;100497.75;6187247;23;20577;-90
2022/11/12 07:48:54;;;;;;;6.97;3.80;;;;;;;13.09;75.35;100499.41;6187525;23;20153;-91
2022/11/12 07:51:30;;;;;;;5.17;2.83;;;;;;;13.12;75.67;100493.16;6187235;23;20152;-91
2022/11/12 07:53:59;;;;;;;7.87;3.33;;;;;;;13.16;74.77;100487.69;6188158;23;20171;-90
2022/11/12 07:56:28;;;;;;;6.83;3.40;;;;;;;13.11;74.74;100480.88;6161054;23;20163;-90
2022/11/12 07:58:56;;;;;;;4.33;2.27;;;;;;;13.06;75.00;100482.84;6187353;23;20148;-90
2022/11/12 08:01:35;;;;;;;6.33;2.70;;;;;;;12.84;75.40;100481.06;6161045;23;20243;-89
2022/11/12 08:04:08;;;;;;;6.37;2.63;;;;;;;12.90;75.84;100486.09;6161108;23;20586;-90
2022/11/12 08:06:35;;;;;;;5.10;2.27;;;;;;;12.88;75.44;100485.31;6161007;23;20151;-90
2022/11/12 08:09:09;;;;;;;5.60;2.47;;;;;;;12.85;75.69;100490.69;6160916;23;20231;-89
2022/11/12 08:11:37;;;;;;;6.17;3.10;;;;;;;12.93;75.23;100488.59;6187364;23;20162;-90
2022/11/12 08:14:07;;;;;;;9.80;3.20;;;;;;;12.94;75.64;100494.75;6187508;23;20230;-90
2022/11/12 08:16:34;;;;;;;5.23;2.67;;;;;;;12.98;75.54;100500.72;6160774;23;20519;-89
2022/11/12 08:19:01;;;;;;;4.20;2.10;;;;;;;12.79;76.41;100490.94;6186664;23;20588;-89
2022/11/12 08:21:27;;;;;;;4.70;2.33;;;;;;;12.73;76.60;100485.94;6186842;23;20152;-90
2022/11/12 08:23:54;;;;;;;4.60;2.23;;;;;;;12.90;75.93;100498.41;6160807;23;20167;-90
2022/11/12 08:26:21;;;;;;;5.87;2.17;;;;;;;12.88;76.58;100498.47;6186775;23;20153;-89
2022/11/12 08:28:47;;;;;;;4.77;2.73;;;;;;;12.93;76.34;100501.75;6186881;23;20152;-90
2022/11/12 08:31:17;;;;;;;4.57;2.60;;;;;;;12.96;76.69;100513.94;6160431;23;20684;-90
2022/11/12 08:33:44;;;;;;;6.60;2.47;;;;;;;13.05;76.46;100518.81;6186397;23;20194;-89
2022/11/12 08:36:12;;;;;;;3.73;1.97;;;;;;;13.04;76.62;100516.25;6186635;23;20226;-89
2022/11/12 08:38:39;;;;;;;5.20;2.43;;;;;;;13.08;76.08;100507.34;6160752;23;20489;-90
2022/11/12 08:41:16;;;;;;;3.10;1.80;;;;;;;13.21;75.51;100513.81;6160635;23;20231;-90
2022/11/12 08:43:43;;;;;;;3.93;1.93;;;;;;;13.16;75.39;100513.16;6160745;23;20159;-91
2022/11/12 08:46:10;;;;;;;3.13;1.83;;;;;;;13.21;74.94;100524.34;6160742;23;20240;-90
2022/11/12 08:48:38;;;;;;;4.37;2.27;;;;;;;13.06;75.84;100519.69;6161106;23;20192;-90
2022/11/12 08:51:07;;;;;;;4.10;1.83;;;;;;;13.09;75.24;100530.13;6186886;23;20521;-90
2022/11/12 08:53:34;;;;;;;8.63;3.17;;;;;;;13.06;75.21;100524.94;6160284;23;20599;-91
2022/11/12 08:56:00;;;;;;;13.37;3.20;;;;;;;13.08;74.74;100515.25;6160510;23;20599;-90
2022/11/12 08:58:27;;;;;;;11.57;3.43;;;;;;;12.85;75.50;100517.00;6186273;23;20581;-90
2022/11/12 09:00:53;;;;;;;7.00;2.93;;;;;;;12.77;75.86;100519.09;6157374;23;20172;-91
2022/11/12 09:03:23;;;;;;;5.73;2.63;;;;;;;12.67;76.71;100517.72;6156789;23;20153;-91
2022/11/12 09:05:51;;;;;;;5.23;2.70;;;;;;;12.75;76.60;100520.94;6184632;23;20632;-90
2022/11/12 09:08:21;;;;;;;4.30;2.07;;;;;;;12.77;76.14;100526.97;6158445;23;20170;-90
2022/11/12 09:10:48;;;;;;;4.57;2.10;;;;;;;12.83;76.60;100526.75;6185400;23;20140;-89
2022/11/12 09:13:17;;;;;;;4.63;2.10;;;;;;;12.87;76.35;100523.06;6185563;23;20186;-89
2022/11/12 09:15:45;;;;;;;3.47;1.70;;;;;;;12.78;76.90;100523.44;6186426;23;20171;-90
2022/11/12 09:18:16;;;;;;;2.90;1.53;;;;;;;12.92;76.35;100528.13;6160594;23;20152;-90
2022/11/12 09:20:41;;;;;;;2.47;1.30;;;;;;;12.79;76.27;100527.75;6186496;23;20137;-90
2022/11/12 09:23:13;;;;;;;3.30;1.60;;;;;;;12.90;75.80;100520.31;6160428;23;20161;-91
2022/11/12 09:25:40;;;;;;;2.80;1.27;;;;;;;12.95;75.98;100523.59;6160781;23;20154;-90
2022/11/12 09:28:10;;;;;;;3.57;1.70;;;;;;;12.95;75.17;100515.72;6186947;23;20230;-89
2022/11/12 09:30:40;;;;;;;5.83;2.17;;;;;;;12.90;75.83;100507.16;6185708;23;20154;-90
2022/11/12 09:33:28;;;;;;;6.70;1.63;;;;;;;12.56;77.02;100511.16;6159061;23;20177;-91
2022/11/12 09:35:54;;;;;;;2.97;1.53;;;;;;;12.43;77.60;100510.78;6159473;23;20167;-92
2022/11/12 09:38:21;;;;;;;2.93;1.37;;;;;;;12.52;77.41;100509.59;6184097;23;20153;-92
2022/11/12 09:40:52;;;;;;;3.90;1.70;;;;;;;12.32;78.08;100512.97;6159228;23;20155;-93
2022/11/12 09:43:38;;;;;;;2.27;0.90;;;;;;;12.39;78.23;100519.72;6184949;23;20223;-90
2022/11/12 09:46:29;;;;;;;3.37;1.10;;;;;;;12.48;77.74;100514.09;6186182;23;20204;-91
2022/11/12 09:49:24;;;;;;;3.47;1.47;;;;;;;12.62;77.64;100513.56;6160732;23;20204;-91
2022/11/12 09:52:03;;;;;;;2.83;1.00;;;;;;;12.55;77.06;100515.56;6159128;23;20595;-92
2022/11/12 09:54:31;;;;;;;3.80;1.67;;;;;;;12.65;76.99;100516.09;6160686;23;20229;-92
2022/11/12 09:56:57;;;;;;;5.97;2.33;;;;;;;12.88;75.48;100506.38;6160568;23;20163;-91
2022/11/12 09:59:28;;;;;;;4.20;1.77;;;;;;;12.51;76.42;100506.09;6160372;23;20160;-91
2022/11/12 10:01:57;;;;;;;8.03;2.13;;;;;;;12.53;76.69;100509.50;6186387;23;20140;-91
2022/11/12 10:04:46;;;;;;;2.33;1.50;;;;;;;12.50;75.87;100507.00;6185891;23;20228;-91
2022/11/12 10:07:30;;;;;;;3.47;1.63;;;;;;;12.42;77.19;100501.16;6186606;23;20195;-90
2022/11/12 10:10:03;;;;;;;6.13;2.83;;;;;;;12.50;76.77;100506.16;6186323;23;20141;-90
2022/11/12 10:12:37;;;;;;;3.57;1.60;;;;;;;12.65;76.31;100502.94;6186011;23;20552;-90
2022/11/12 10:18:18;;;;;;;4.37;1.30;;;;;;;12.38;77.18;100498.72;6186138;23;20566;-91
2022/11/12 10:21:18;;;;;;;3.40;1.70;;;;;;;12.18;78.35;100497.72;6160002;23;20595;-90
2022/11/12 10:23:46;;;;;;;3.23;1.33;;;;;;;12.18;77.81;100492.47;6186166;23;20143;-90
2022/11/12 10:26:14;;;;;;;3.37;1.60;;;;;;;12.22;78.08;100495.81;6186544;23;20151;-90
2022/11/12 10:29:06;;;;;;;3.40;1.57;;;;;;;12.09;78.41;100491.94;6185892;23;20583;-90
2022/11/12 10:31:31;;;;;;;2.53;1.60;;;;;;;12.06;78.78;100498.16;6186314;23;20151;-89
2022/11/12 10:34:14;;;;;;;2.50;1.20;;;;;;;12.10;78.93;100504.19;6186459;23;20167;-90
2022/11/12 10:36:44;;;;;;;3.77;1.57;;;;;;;12.29;78.38;100497.28;6186533;23;20146;-89
2022/11/12 10:39:09;;;;;;;3.17;1.33;;;;;;;12.24;78.35;100496.59;6185780;23;20148;-89
2022/11/12 10:41:35;;;;;;;2.27;1.20;;;;;;;12.31;78.03;100487.59;6185784;23;20146;-89
2022/11/12 10:44:03;;;;;;;4.30;1.50;;;;;;;12.07;78.61;100483.25;6185985;23;20147;-90
2022/11/12 10:46:35;;;;;;;4.73;1.40;;;;;;;12.10;79.00;100481.38;6185751;23;20148;-89
2022/11/12 10:49:07;;;;;;;2.53;1.43;;;;;;;11.90;79.23;100469.88;6186007;23;20237;-92
2022/11/12 10:51:37;;;;;;;2.97;1.30;;;;;;;11.66;81.03;100477.69;6185215;23;20144;-90
2022/11/12 10:54:28;;;;;;;3.60;1.37;;;;;;;11.82;80.39;100487.72;6159431;23;20182;-91
2022/11/12 10:56:53;;;;;;;2.10;1.23;;;;;;;11.68;80.74;100481.19;6186074;23;20197;-91
2022/11/12 10:59:23;;;;;;;4.70;1.60;;;;;;;11.58;81.83;100479.72;6159557;23;20162;-90
2022/11/12 11:01:59;;;;;;;2.07;1.17;;;;;;;11.71;81.86;100474.97;6186015;23;20167;-90
2022/11/12 11:04:34;;;;;;;4.27;1.37;;;;;;;11.72;81.66;100474.03;6185568;23;20154;-91
2022/11/12 11:07:20;;;;;;;3.63;1.53;;;;;;;11.71;82.12;100464.44;6185868;23;20616;-90
2022/11/12 11:10:00;;;;;;;2.27;1.33;;;;;;;11.78;81.62;100471.19;6159520;23;20153;-90
2022/11/12 11:12:28;;;;;;;2.87;1.10;;;;;;;11.94;81.66;100466.22;6185862;23;20154;-90
2022/11/12 11:15:14;;;;;;;4.83;1.60;;;;;;;11.76;81.72;100466.91;6185595;23;20170;-91
2022/11/12 11:17:40;;;;;;;9.03;2.80;;;;;;;11.87;81.22;100456.88;6159791;23;20154;-91
2022/11/12 11:20:21;;;;;;;3.23;1.40;;;;;;;11.99;81.14;100459.03;6159727;23;20162;-90
2022/11/12 11:22:55;;;;;;;3.57;1.73;;;;;;;11.86;81.62;100458.63;6185893;23;20135;-90
2022/11/12 11:25:28;;;;;;;3.20;1.23;;;;;;;11.97;81.12;100459.09;6185818;23;20537;-90
2022/11/12 11:28:14;;;;;;;4.23;2.20;;;;;;;12.22;79.88;100464.28;6185540;23;20178;-90
2022/11/12 11:30:52;;;;;;;4.20;1.50;;;;;;;12.10;79.89;100472.63;6159331;23;20597;-91
2022/11/12 11:33:28;;;;;;;5.90;3.00;;;;;;;12.12;79.83;100471.66;6185352;23;20575;-89
2022/11/12 11:36:16;;;;;;;3.93;1.80;;;;;;;12.27;79.67;100467.59;6184854;23;20168;-90
2022/11/12 11:39:23;;;;;;;3.00;1.40;;;;;;;12.29;79.71;100468.38;6159067;23;20575;-90
2022/11/12 11:42:12;;;;;;;4.40;1.80;;;;;;;12.54;78.54;100458.63;6183144;23;20160;-90
2022/11/12 11:45:18;;;;;;;1.90;0.90;;;;;;;12.33;79.12;100452.44;6183717;23;20559;-90
2022/11/12 11:48:09;;;;;;;2.13;0.97;;;;;;;12.32;78.96;100449.84;6158891;23;20153;-89
2022/11/12 11:50:54;;;;;;;2.77;1.37;;;;;;;12.26;79.03;100444.84;6182847;23;20675;-89
2022/11/12 11:53:44;;;;;;;2.13;1.13;;;;;;;12.33;78.67;100451.56;6183225;23;20204;-89
2022/11/12 11:56:31;;;;;;;2.53;1.30;;;;;;;12.17;80.13;100460.97;6183735;23;20252;-89
2022/11/12 11:59:17;;;;;;;3.50;1.63;;;;;;;12.45;79.82;100460.78;6158672;23;20174;-89
2022/11/12 12:02:07;;;;;;;3.17;1.10;;;;;;;12.39;79.53;100464.50;6158597;23;20178;-89
2022/11/12 12:04:46;;;;;;;2.40;0.93;;;;;;;12.21;79.51;100471.28;6186550;23;20145;-89
2022/11/12 12:07:54;;;;;;;2.30;1.10;;;;;;;12.46;79.28;100467.72;6186347;23;20143;-89
2022/11/12 12:10:38;;;;;;;3.70;1.33;;;;;;;12.33;78.30;100465.59;6165011;23;20156;-90
2022/11/12 12:13:31;;;;;;;2.07;0.93;;;;;;;12.31;78.67;100454.28;6159695;23;20155;-90
2022/11/12 12:16:34;;;;;;;5.20;2.40;;;;;;;12.30;78.58;100457.81;6160695;23;20158;-90
2022/11/12 12:19:18;;;;;;;2.90;1.20;;;;;;;12.43;78.18;100454.69;6157574;23;20194;-89
2022/11/12 12:21:49;;;;;;;4.17;1.03;;;;;;;12.45;77.88;100448.47;6186311;23;20238;-91
2022/11/12 12:24:22;;;;;;;2.90;1.50;;;;;;;12.53;77.60;100451.66;6187141;23;20139;-90
2022/11/12 12:27:16;;;;;;;2.47;1.10;;;;;;;12.64;77.21;100432.81;6186494;23;20136;-90
2022/11/12 12:29:52;;;;;;;2.20;1.00;;;;;;;12.64;77.05;100432.81;6186333;23;20478;-89
2022/11/12 12:32:24;;;;;;;2.57;1.23;;;;;;;12.79;76.92;100417.25;6186435;23;20247;-90
2022/11/12 12:35:27;;;;;;;3.80;1.30;;;;;;;12.63;76.80;100403.00;6186440;23;20185;-90
2022/11/12 12:38:04;;;;;;;4.10;1.37;;;;;;;12.58;77.12;100415.50;6186277;23;20213;-90
2022/11/12 12:41:00;;;;;;;3.80;1.60;;;;;;;12.48;77.22;100406.25;6160632;23;20210;-90
2022/11/12 12:43:44;;;;;;;4.03;1.90;;;;;;;12.24;79.03;100418.59;6186454;23;20144;-90
2022/11/12 12:46:13;;;;;;;2.83;1.20;;;;;;;12.19;78.99;100414.44;6187036;23;20132;-91
2022/11/12 12:48:43;;;;;;;2.93;1.43;;;;;;;12.38;77.98;100423.34;6161123;23;20152;-89
2022/11/12 12:51:10;;;;;;;3.57;1.67;;;;;;;12.25;78.74;100424.72;6135479;23;20233;-90